Time;durP1;ratioP1;P1;durP2;ratioP2;P2;SDS_P1;SDS_P2;PMS_P1;PMS_P2;Temp;Humidity;BMP_temperature;BMP_pressure;BME280_temperature;BME280_humidity;BME280_pressure;Samples;Min_cycle;Max_cycle;Signal;HPM_P1;HPM_P2
2023/06/18 00:02:03;;;;;;;;;;;;;;;21.50;74.08;96580.73;622095;228;64973;-60
2023/06/18 00:04:31;;;;;;;;;;;;;;;21.49;74.06;96584.47;622107;228;66858;-60
2023/06/18 00:06:59;;;;;;;;;;;;;;;21.49;74.06;96584.47;622104;228;65086;-59
2023/06/18 00:09:26;;;;;;;;;;;;;;;21.51;74.08;96586.87;622153;228;67198;-60
2023/06/18 00:11:54;;;;;;;;;;;;;;;21.50;74.06;96586.08;622079;228;66876;-59
2023/06/18 00:14:22;;;;;;;;;;;;;;;21.49;74.05;96581.80;622104;228;65120;-60
2023/06/18 00:16:50;;;;;;;;;;;;;;;21.49;74.05;96581.80;622103;228;64975;-59
2023/06/18 00:19:18;;;;;;;;;;;;;;;21.49;74.05;96581.00;622119;228;66808;-60
2023/06/18 00:21:46;;;;;;;;;;;;;;;21.49;74.05;96584.47;622109;228;65110;-60
2023/06/18 00:24:13;;;;;;;;;;;;;;;21.49;74.06;96578.33;622120;228;67198;-60
2023/06/18 00:26:41;;;;;;;;;;;;;;;21.49;74.06;96589.02;622065;228;67314;-60
2023/06/18 00:29:08;;;;;;;;;;;;;;;21.49;74.05;96584.47;622109;228;65087;-60
2023/06/18 00:31:36;;;;;;;;;;;;;;;21.49;74.06;96587.14;622119;228;66969;-60
2023/06/18 00:34:07;;;;;;;;;;;;;;;21.49;74.06;96589.81;622104;228;67067;-59
2023/06/18 00:36:38;;;;;;;;;;;;;;;21.49;74.08;96592.48;622085;228;65812;-60
2023/06/18 00:39:03;;;;;;;;;;;;;;;21.49;74.04;96597.84;621999;228;67180;-59
2023/06/18 00:41:31;;;;;;;;;;;;;;;21.48;74.05;96609.62;622096;228;66853;-59
2023/06/18 00:43:59;;;;;;;;;;;;;;;21.48;74.05;96596.25;622106;228;63039;-59
2023/06/18 00:46:30;;;;;;;;;;;;;;;21.48;74.08;96596.25;622148;228;64588;-58
2023/06/18 00:48:57;;;;;;;;;;;;;;;21.48;74.06;96603.48;621196;228;64555;-60
2023/06/18 00:51:26;;;;;;;;;;;;;;;21.48;74.05;96598.92;620249;228;64959;-59
2023/06/18 00:53:56;;;;;;;;;;;;;;;21.47;74.06;96605.36;615121;228;68532;-60
2023/06/18 00:56:25;;;;;;;;;;;;;;;21.48;74.06;96604.27;620249;228;67040;-60
2023/06/18 00:58:52;;;;;;;;;;;;;;;21.48;74.05;96609.62;620268;228;64871;-60
2023/06/18 01:01:20;;;;;;;;;;;;;;;21.48;74.05;96614.17;620281;228;68045;-60
2023/06/18 01:03:49;;;;;;;;;;;;;;;21.48;74.05;96608.83;620260;228;64614;-60
2023/06/18 01:06:18;;;;;;;;;;;;;;;21.48;74.04;96612.30;620259;228;64916;-59
2023/06/18 01:08:55;;;;;;;;;;;;;;;21.48;74.05;96620.31;620261;228;67631;-60
2023/06/18 01:11:21;;;;;;;;;;;;;;;21.48;74.04;96614.97;619827;228;64951;-59
2023/06/18 01:13:47;;;;;;;;;;;;;;;21.48;74.04;96608.83;620081;228;65934;-60
2023/06/18 01:16:16;;;;;;;;;;;;;;;21.47;74.04;96602.69;620222;228;67265;-60
2023/06/18 01:18:45;;;;;;;;;;;;;;;21.49;74.03;96613.88;620272;228;64838;-60
2023/06/18 01:21:19;;;;;;;;;;;;;;;21.48;74.03;96609.62;620276;228;63536;-60
2023/06/18 01:23:55;;;;;;;;;;;;;;;21.47;74.04;96602.69;620270;228;67093;-59
2023/06/18 01:26:23;;;;;;;;;;;;;;;21.48;74.03;96604.27;620013;228;67076;-59
2023/06/18 01:28:58;;;;;;;;;;;;;;;21.48;74.05;96616.84;620314;228;65033;-59
2023/06/18 01:31:23;;;;;;;;;;;;;;;21.47;74.06;96613.38;620116;228;67195;-59
2023/06/18 01:33:53;;;;;;;;;;;;;;;21.47;74.07;96616.06;620300;228;66739;-59
2023/06/18 01:36:31;;;;;;;;;;;;;;;21.47;74.07;96613.38;620269;228;64858;-60
2023/06/18 01:39:00;;;;;;;;;;;;;;;21.46;74.06;96611.77;620174;228;67211;-59
2023/06/18 01:41:29;;;;;;;;;;;;;;;21.47;74.05;96615.23;620214;228;65114;-59
2023/06/18 01:43:58;;;;;;;;;;;;;;;21.47;74.05;96612.56;620266;228;61190;-59
2023/06/18 01:46:27;;;;;;;;;;;;;;;21.46;74.07;96609.09;620177;228;67139;-59
2023/06/18 01:49:00;;;;;;;;;;;;;;;21.46;74.06;96605.63;620223;228;67423;-59
2023/06/18 01:51:30;;;;;;;;;;;;;;;21.46;74.07;96610.98;620264;228;63341;-59
2023/06/18 01:53:58;;;;;;;;;;;;;;;21.47;74.08;96624.08;620279;228;64894;-59
2023/06/18 01:56:28;;;;;;;;;;;;;;;21.47;74.10;96617.91;620289;228;66959;-59
2023/06/18 01:58:55;;;;;;;;;;;;;;;21.46;74.14;96627.81;620283;228;66074;-59
2023/06/18 02:01:26;;;;;;;;;;;;;;;21.47;74.14;96621.41;620230;228;66713;-59
2023/06/18 02:03:53;;;;;;;;;;;;;;;21.46;74.12;96610.98;620241;228;65749;-59
2023/06/18 02:06:20;;;;;;;;;;;;;;;21.47;74.12;96624.08;620221;227;62836;-59
2023/06/18 02:08:48;;;;;;;;;;;;;;;21.47;74.13;96624.08;620318;228;65808;-59
2023/06/18 02:11:15;;;;;;;;;;;;;;;21.46;74.12;96630.48;620269;228;64893;-59
2023/06/18 02:13:43;;;;;;;;;;;;;;;21.46;74.14;96627.81;620252;228;65829;-59
2023/06/18 02:16:11;;;;;;;;;;;;;;;21.46;74.12;96633.16;620207;228;67203;-59
2023/06/18 02:18:38;;;;;;;;;;;;;;;21.46;74.12;96632.37;620278;228;64885;-59
2023/06/18 02:21:07;;;;;;;;;;;;;;;21.46;74.15;96629.69;620326;228;62910;-59
2023/06/18 02:23:35;;;;;;;;;;;;;;;21.46;74.12;96633.16;620299;228;64624;-59
2023/06/18 02:26:03;;;;;;;;;;;;;;;21.46;74.11;96630.48;620267;228;67482;-60
2023/06/18 02:28:31;;;;;;;;;;;;;;;21.46;74.12;96629.69;620263;228;64875;-59
2023/06/18 02:30:58;;;;;;;;;;;;;;;21.46;74.15;96621.67;620236;228;64691;-60
2023/06/18 02:33:26;;;;;;;;;;;;;;;21.46;74.12;96621.67;620309;228;64271;-59
2023/06/18 02:35:53;;;;;;;;;;;;;;;21.39;74.11;96611.33;620312;228;62826;-59
2023/06/18 02:38:21;;;;;;;;;;;;;;;21.45;74.15;96628.91;620271;228;66908;-60
2023/06/18 02:40:48;;;;;;;;;;;;;;;21.46;74.15;96627.02;620273;228;64450;-60
2023/06/18 02:43:16;;;;;;;;;;;;;;;21.46;74.16;96624.34;620269;228;64653;-60
2023/06/18 02:45:44;;;;;;;;;;;;;;;21.45;74.17;96634.25;620239;228;66964;-60
2023/06/18 02:48:13;;;;;;;;;;;;;;;21.46;74.16;96635.04;620289;228;64735;-60
2023/06/18 02:50:41;;;;;;;;;;;;;;;21.45;74.16;96626.23;620245;228;65875;-60
2023/06/18 02:53:08;;;;;;;;;;;;;;;21.45;74.17;96631.58;620261;228;64527;-60
2023/06/18 02:55:36;;;;;;;;;;;;;;;21.46;74.19;96637.72;620228;228;68074;-60
2023/06/18 02:58:09;;;;;;;;;;;;;;;21.46;74.19;96640.39;620209;228;65054;-60
2023/06/18 03:00:34;;;;;;;;;;;;;;;21.46;74.21;96648.41;620176;228;67290;-60
2023/06/18 03:03:02;;;;;;;;;;;;;;;21.45;74.21;96652.17;620237;228;67177;-60
2023/06/18 03:05:31;;;;;;;;;;;;;;;21.45;74.24;96652.97;620245;228;65616;-60
2023/06/18 03:07:59;;;;;;;;;;;;;;;21.45;74.20;96646.83;620235;228;67895;-60
2023/06/18 03:10:29;;;;;;;;;;;;;;;21.44;74.23;96651.38;620218;228;67030;-60
2023/06/18 03:12:57;;;;;;;;;;;;;;;21.44;74.22;96658.58;620294;228;65700;-59
2023/06/18 03:15:26;;;;;;;;;;;;;;;21.44;74.25;96659.41;619181;228;47170;-59
2023/06/18 03:17:54;;;;;;;;;;;;;;;21.45;74.24;96663.66;620253;229;65051;-59
2023/06/18 03:20:23;;;;;;;;;;;;;;;21.43;74.21;96660.46;620213;229;65697;-59
2023/06/18 03:22:52;;;;;;;;;;;;;;;21.44;74.25;96662.08;620226;228;45798;-59
2023/06/18 03:25:20;;;;;;;;;;;;;;;21.45;74.22;96660.19;620258;229;67126;-60
2023/06/18 03:27:48;;;;;;;;;;;;;;;21.45;74.22;96662.86;620314;228;65875;-59
2023/06/18 03:30:16;;;;;;;;;;;;;;;21.44;74.25;96662.08;620301;228;67110;-60
2023/06/18 03:32:44;;;;;;;;;;;;;;;21.45;74.26;96668.21;620276;228;67483;-60
2023/06/18 03:35:13;;;;;;;;;;;;;;;21.45;74.26;96662.86;620282;228;63079;-60
2023/06/18 03:37:41;;;;;;;;;;;;;;;21.42;74.25;96658.88;620299;228;67609;-60
2023/06/18 03:40:10;;;;;;;;;;;;;;;21.44;74.27;96658.58;620349;228;64685;-60
2023/06/18 03:42:37;;;;;;;;;;;;;;;21.44;74.27;96655.91;620293;228;65067;-60
2023/06/18 03:45:05;;;;;;;;;;;;;;;21.44;74.28;96662.08;620277;228;64593;-60
2023/06/18 03:47:33;;;;;;;;;;;;;;;21.44;74.28;96666.59;620310;228;66760;-60
2023/06/18 03:50:00;;;;;;;;;;;;;;;21.43;74.29;96660.46;620227;228;62899;-60
2023/06/18 03:52:29;;;;;;;;;;;;;;;21.44;74.29;96661.25;620365;228;67431;-60
2023/06/18 03:54:56;;;;;;;;;;;;;;;21.44;74.30;96661.25;620318;228;64532;-60
2023/06/18 03:57:24;;;;;;;;;;;;;;;21.43;74.30;96663.13;620284;228;65057;-60
2023/06/18 03:59:52;;;;;;;;;;;;;;;21.43;74.31;96668.48;620020;228;66961;-60
2023/06/18 04:02:20;;;;;;;;;;;;;;;21.43;74.31;96659.67;620289;228;67102;-60
2023/06/18 04:04:47;;;;;;;;;;;;;;;21.43;74.33;96665.81;620330;228;65088;-60
2023/06/18 04:07:15;;;;;;;;;;;;;;;21.43;74.33;96660.46;620288;228;64656;-60
2023/06/18 04:09:42;;;;;;;;;;;;;;;21.43;74.34;96662.34;620293;228;64669;-60
2023/06/18 04:12:11;;;;;;;;;;;;;;;21.43;74.36;96662.34;620261;228;65141;-59
2023/06/18 04:14:38;;;;;;;;;;;;;;;21.43;74.36;96670.36;620285;228;67068;-59
2023/06/18 04:17:06;;;;;;;;;;;;;;;21.42;74.36;96669.57;620228;228;67633;-59
2023/06/18 04:19:34;;;;;;;;;;;;;;;21.42;74.40;96669.57;620328;228;65609;-60
2023/06/18 04:22:03;;;;;;;;;;;;;;;21.43;74.41;96673.03;620287;228;67437;-59
2023/06/18 04:24:32;;;;;;;;;;;;;;;21.43;74.40;96676.50;620295;228;65482;-59
2023/06/18 04:27:01;;;;;;;;;;;;;;;21.43;74.42;96671.16;620304;228;65044;-59
2023/06/18 04:29:31;;;;;;;;;;;;;;;21.42;74.45;96674.91;620268;228;64289;-59
2023/06/18 04:31:58;;;;;;;;;;;;;;;21.43;74.47;96676.50;620331;228;66823;-59
2023/06/18 04:34:28;;;;;;;;;;;;;;;21.42;74.44;96679.47;620280;228;62518;-60
2023/06/18 04:36:56;;;;;;;;;;;;;;;21.43;74.50;96675.71;620287;228;67895;-60
2023/06/18 04:39:23;;;;;;;;;;;;;;;21.42;74.53;96674.12;620284;228;67392;-60
2023/06/18 04:41:51;;;;;;;;;;;;;;;21.42;74.55;96674.91;620297;228;63830;-60
2023/06/18 04:44:18;;;;;;;;;;;;;;;21.42;74.55;96674.91;620327;228;66958;-59
2023/06/18 04:46:48;;;;;;;;;;;;;;;21.42;74.52;96677.59;620269;228;66836;-60
2023/06/18 04:49:16;;;;;;;;;;;;;;;21.42;74.57;96674.91;620272;228;62898;-59
2023/06/18 04:51:44;;;;;;;;;;;;;;;21.41;74.59;96675.98;620325;228;67468;-60
2023/06/18 04:54:13;;;;;;;;;;;;;;;21.41;74.58;96684.00;620273;228;64603;-60
2023/06/18 04:56:40;;;;;;;;;;;;;;;21.42;74.59;96680.27;620270;228;66154;-60
2023/06/18 04:59:08;;;;;;;;;;;;;;;21.41;74.60;96680.53;619999;228;65402;-60
2023/06/18 05:01:38;;;;;;;;;;;;;;;21.41;74.60;96677.86;620228;228;66858;-60
2023/06/18 05:04:06;;;;;;;;;;;;;;;21.41;74.60;96681.32;620280;228;65689;-59
2023/06/18 05:06:33;;;;;;;;;;;;;;;21.42;74.60;96684.81;620268;228;67058;-59
2023/06/18 05:09:03;;;;;;;;;;;;;;;21.42;74.60;96684.81;620305;228;46224;-59
2023/06/18 05:11:31;;;;;;;;;;;;;;;21.41;74.60;96692.02;620322;228;65153;-59
2023/06/18 05:14:00;;;;;;;;;;;;;;;21.42;74.60;96692.84;620293;228;64447;-60
2023/06/18 05:16:30;;;;;;;;;;;;;;;21.41;74.61;96704.59;620322;228;66607;-60
2023/06/18 05:18:58;;;;;;;;;;;;;;;21.41;74.62;96694.69;620276;228;65057;-60
2023/06/18 05:21:25;;;;;;;;;;;;;;;21.41;74.65;96700.03;620276;228;64302;-60
2023/06/18 05:23:53;;;;;;;;;;;;;;;21.42;74.67;96711.55;620301;228;65086;-60
2023/06/18 05:26:24;;;;;;;;;;;;;;;21.40;74.66;96709.14;620264;228;65759;-60
2023/06/18 05:28:51;;;;;;;;;;;;;;;21.41;74.68;96709.94;620304;228;65520;-60
2023/06/18 05:31:19;;;;;;;;;;;;;;;21.41;74.67;96716.08;620285;228;67301;-60
2023/06/18 05:33:47;;;;;;;;;;;;;;;21.41;74.71;96709.94;620284;228;64926;-60
2023/06/18 05:36:15;;;;;;;;;;;;;;;21.41;74.68;96721.42;620247;228;66926;-60
2023/06/18 05:38:44;;;;;;;;;;;;;;;21.40;74.70;96714.49;620305;228;46758;-59
2023/06/18 05:41:13;;;;;;;;;;;;;;;21.40;74.69;96714.49;620250;228;63556;-61
2023/06/18 05:43:42;;;;;;;;;;;;;;;21.40;74.70;96717.16;620204;228;64368;-61
2023/06/18 05:46:10;;;;;;;;;;;;;;;21.40;74.72;96713.70;620260;228;66638;-61
2023/06/18 05:48:38;;;;;;;;;;;;;;;21.40;74.71;96717.16;620813;228;62670;-60
2023/06/18 05:51:07;;;;;;;;;;;;;;;21.39;74.75;96718.25;621826;228;48086;-61
2023/06/18 05:53:35;;;;;;;;;;;;;;;21.40;74.76;96727.86;622097;228;66831;-61
2023/06/18 05:56:03;;;;;;;;;;;;;;;21.39;74.75;96728.95;622136;228;64955;-61
2023/06/18 05:58:30;;;;;;;;;;;;;;;21.39;74.75;96734.30;622108;228;66686;-61
2023/06/18 06:00:58;;;;;;;;;;;;;;;21.40;74.74;96730.53;622114;228;66805;-61
2023/06/18 06:03:25;;;;;;;;;;;;;;;21.39;74.73;96728.95;622124;228;64930;-61
2023/06/18 06:05:53;;;;;;;;;;;;;;;21.40;74.77;96738.55;622148;228;65556;-61
2023/06/18 06:08:21;;;;;;;;;;;;;;;21.40;74.75;96741.22;622112;228;64576;-61
2023/06/18 06:10:51;;;;;;;;;;;;;;;21.39;75.04;96741.49;622056;228;42614;-60
2023/06/18 06:13:20;;;;;;;;;;;;;;;21.39;74.75;96742.31;622065;228;64590;-60
2023/06/18 06:15:49;;;;;;;;;;;;;;;21.40;75.22;96738.55;621983;228;45501;-61
2023/06/18 06:18:17;;;;;;;;;;;;;;;21.40;75.23;96741.22;622085;228;64509;-60
2023/06/18 06:20:44;;;;;;;;;;;;;;;21.40;75.16;96741.22;622111;228;67671;-60
2023/06/18 06:23:12;;;;;;;;;;;;;;;21.40;75.20;96746.57;622120;228;67288;-60
2023/06/18 06:25:40;;;;;;;;;;;;;;;21.41;75.19;96744.69;622098;228;65070;-61
2023/06/18 06:28:08;;;;;;;;;;;;;;;21.42;75.10;96746.30;622142;228;67472;-61
2023/06/18 06:30:36;;;;;;;;;;;;;;;21.42;75.09;96749.77;622201;228;66222;-61
2023/06/18 06:33:05;;;;;;;;;;;;;;;21.42;75.04;96744.42;622151;228;43533;-61
2023/06/18 06:35:33;;;;;;;;;;;;;;;21.42;74.98;96747.09;622125;228;66579;-60
2023/06/18 06:38:01;;;;;;;;;;;;;;;21.42;74.99;96747.09;622102;228;64469;-60
2023/06/18 06:40:28;;;;;;;;;;;;;;;21.42;74.94;96747.09;622146;228;62645;-60
2023/06/18 06:42:56;;;;;;;;;;;;;;;21.42;74.98;96747.09;622116;228;67151;-60
2023/06/18 06:45:31;;;;;;;;;;;;;;;21.43;74.93;96748.68;621869;228;46291;-61
2023/06/18 06:48:11;;;;;;;;;;;;;;;21.43;74.91;96748.68;616876;228;46187;-60
2023/06/18 06:50:56;;;;;;;;;;;;;;;21.44;74.98;96752.14;622204;228;38375;-60
2023/06/18 06:53:26;;;;;;;;;;;;;;;21.45;74.92;96756.44;622040;228;46048;-60
2023/06/18 06:55:53;;;;;;;;;;;;;;;21.44;74.96;96760.98;622089;228;65267;-60
2023/06/18 06:58:23;;;;;;;;;;;;;;;21.43;74.95;96759.38;622111;228;67204;-60
2023/06/18 07:00:51;;;;;;;;;;;;;;;21.43;74.93;96759.38;622103;228;64205;-60
2023/06/18 07:03:18;;;;;;;;;;;;;;;21.45;74.94;96765.25;622073;228;62654;-60
2023/06/18 07:05:46;;;;;;;;;;;;;;;21.45;74.95;96770.59;622078;228;67258;-60
2023/06/18 07:08:13;;;;;;;;;;;;;;;21.44;74.94;96779.70;622121;228;66853;-60
2023/06/18 07:10:41;;;;;;;;;;;;;;;21.46;74.95;96774.06;622151;228;62868;-60
2023/06/18 07:13:08;;;;;;;;;;;;;;;21.46;74.92;96776.73;622078;228;66729;-60
2023/06/18 07:15:36;;;;;;;;;;;;;;;21.45;74.95;96778.61;622090;228;64830;-60
2023/06/18 07:18:03;;;;;;;;;;;;;;;21.46;74.97;96785.55;622111;228;65080;-60
2023/06/18 07:20:31;;;;;;;;;;;;;;;21.46;74.94;96780.20;622089;228;64533;-60
2023/06/18 07:22:58;;;;;;;;;;;;;;;21.46;74.98;96780.20;622149;228;64741;-60
2023/06/18 07:25:26;;;;;;;;;;;;;;;21.47;74.95;96772.97;622050;228;63127;-60
2023/06/18 07:27:53;;;;;;;;;;;;;;;21.47;74.94;96776.47;622096;228;64692;-60
2023/06/18 07:30:21;;;;;;;;;;;;;;;21.47;74.99;96776.47;622116;228;66747;-60
2023/06/18 07:32:48;;;;;;;;;;;;;;;21.47;75.06;96779.14;621856;228;64831;-60
2023/06/18 07:35:16;;;;;;;;;;;;;;;21.46;75.06;96777.53;621909;228;66847;-60
2023/06/18 07:37:44;;;;;;;;;;;;;;;21.47;75.05;96784.48;622147;228;66800;-60
2023/06/18 07:40:12;;;;;;;;;;;;;;;21.48;75.10;96785.28;621846;228;62884;-60
2023/06/18 07:42:39;;;;;;;;;;;;;;;21.46;75.09;96777.53;621773;228;64630;-60
2023/06/18 07:45:07;;;;;;;;;;;;;;;21.47;75.12;96781.81;622110;228;64781;-60
2023/06/18 07:47:35;;;;;;;;;;;;;;;21.47;75.10;96779.14;622046;228;65053;-60
2023/06/18 07:50:03;;;;;;;;;;;;;;;21.48;75.14;96778.05;620424;228;67217;-60
2023/06/18 07:52:30;;;;;;;;;;;;;;;21.48;75.12;96780.73;620210;229;67357;-60
2023/06/18 07:54:58;;;;;;;;;;;;;;;21.48;75.17;96775.38;620257;229;65100;-60
2023/06/18 07:57:25;;;;;;;;;;;;;;;21.48;75.16;96771.91;620233;229;67265;-60
2023/06/18 07:59:52;;;;;;;;;;;;;;;21.49;75.18;96774.29;620235;229;67118;-60
2023/06/18 08:02:20;;;;;;;;;;;;;;;21.48;75.14;96770.03;620259;229;64829;-60
2023/06/18 08:04:47;;;;;;;;;;;;;;;21.48;75.19;96769.23;620235;229;64945;-60
2023/06/18 08:07:15;;;;;;;;;;;;;;;21.48;75.16;96774.59;620261;229;64740;-60
2023/06/18 08:09:42;;;;;;;;;;;;;;;21.48;75.17;96772.70;620246;229;63033;-60
2023/06/18 08:12:11;;;;;;;;;;;;;;;21.47;75.17;96773.80;620225;229;64828;-60
2023/06/18 08:14:38;;;;;;;;;;;;;;;21.47;75.19;96773.80;620279;228;66991;-60
2023/06/18 08:17:06;;;;;;;;;;;;;;;21.48;75.21;96775.38;620252;228;65122;-60
2023/06/18 08:19:35;;;;;;;;;;;;;;;21.48;75.22;96778.05;620208;228;45147;-60
2023/06/18 08:22:03;;;;;;;;;;;;;;;21.49;75.22;96784.19;620280;228;66839;-60
2023/06/18 08:24:30;;;;;;;;;;;;;;;21.49;75.25;96782.31;620271;228;65053;-60
2023/06/18 08:26:58;;;;;;;;;;;;;;;21.48;75.21;96780.73;620298;228;67120;-60
2023/06/18 08:29:25;;;;;;;;;;;;;;;21.49;75.25;96782.31;620264;228;67083;-60
2023/06/18 08:31:52;;;;;;;;;;;;;;;21.49;75.20;96784.98;620273;228;62760;-60
2023/06/18 08:34:20;;;;;;;;;;;;;;;21.49;75.27;96787.66;620284;228;66874;-60
2023/06/18 08:36:49;;;;;;;;;;;;;;;21.49;75.27;96790.33;620280;228;67042;-60
2023/06/18 08:39:16;;;;;;;;;;;;;;;21.49;75.27;96787.66;620308;228;65039;-60
2023/06/18 08:41:45;;;;;;;;;;;;;;;21.49;75.27;96798.35;620295;228;65108;-60
2023/06/18 08:44:12;;;;;;;;;;;;;;;21.49;75.27;96792.21;620283;228;67047;-60
2023/06/18 08:46:42;;;;;;;;;;;;;;;21.49;75.23;96797.56;620257;228;62913;-60
2023/06/18 08:49:10;;;;;;;;;;;;;;;21.49;75.22;96793.00;620232;228;67837;-60
2023/06/18 08:51:38;;;;;;;;;;;;;;;21.49;75.24;96803.70;620276;228;66988;-60
2023/06/18 08:54:08;;;;;;;;;;;;;;;21.49;75.20;96809.05;620300;228;62875;-60
2023/06/18 08:56:38;;;;;;;;;;;;;;;21.49;75.20;96809.05;620275;228;67217;-60
2023/06/18 08:59:05;;;;;;;;;;;;;;;21.49;75.21;96809.05;620033;228;66684;-60
2023/06/18 09:01:33;;;;;;;;;;;;;;;21.49;75.24;96806.38;620278;228;65016;-60
2023/06/18 09:04:02;;;;;;;;;;;;;;;21.49;75.26;96798.35;620245;228;67232;-60
2023/06/18 09:06:30;;;;;;;;;;;;;;;21.49;75.29;96806.38;620275;228;67336;-60
2023/06/18 09:09:00;;;;;;;;;;;;;;;21.50;75.30;96801.84;620248;228;65009;-60
2023/06/18 09:11:28;;;;;;;;;;;;;;;21.49;75.30;96811.72;620075;228;65081;-60
2023/06/18 09:13:55;;;;;;;;;;;;;;;21.49;75.31;96806.38;620281;228;67042;-60
2023/06/18 09:16:24;;;;;;;;;;;;;;;21.50;75.30;96805.31;620253;228;65054;-60
2023/06/18 09:18:52;;;;;;;;;;;;;;;21.50;75.33;96801.84;620334;228;64966;-60
2023/06/18 09:21:39;;;;;;;;;;;;;;;21.49;75.32;96802.91;620219;228;65564;-60
2023/06/18 09:24:11;;;;;;;;;;;;;;;21.50;75.31;96804.52;620289;228;65027;-61
2023/06/18 09:26:38;;;;;;;;;;;;;;;21.49;75.33;96809.05;619151;228;64532;-61
2023/06/18 09:29:06;;;;;;;;;;;;;;;21.49;75.35;96803.70;620248;228;64834;-61
2023/06/18 09:31:35;;;;;;;;;;;;;;;21.49;75.30;96810.93;620230;228;62991;-61
2023/06/18 09:34:13;;;;;;;;;;;;;;;21.50;75.37;96804.52;620300;228;64838;-61
2023/06/18 09:36:41;;;;;;;;;;;;;;;21.49;75.35;96803.70;620251;228;66891;-60
2023/06/18 09:39:15;;;;;;;;;;;;;;;21.50;75.36;96817.89;620262;228;62730;-60
2023/06/18 09:41:44;;;;;;;;;;;;;;;21.48;75.37;96815.48;620269;228;67060;-61
2023/06/18 09:44:13;;;;;;;;;;;;;;;21.49;75.33;96814.39;620203;228;67015;-61
2023/06/18 09:46:44;;;;;;;;;;;;;;;21.50;75.34;96809.87;620209;228;46688;-61
2023/06/18 09:49:13;;;;;;;;;;;;;;;21.50;75.38;96804.52;620092;228;64959;-61
2023/06/18 09:51:41;;;;;;;;;;;;;;;21.50;75.34;96809.87;620271;228;67095;-61
2023/06/18 09:54:09;;;;;;;;;;;;;;;21.49;75.35;96806.38;620234;228;63792;-61
2023/06/18 09:56:38;;;;;;;;;;;;;;;21.50;75.35;96801.84;620212;228;67089;-61
2023/06/18 09:59:05;;;;;;;;;;;;;;;21.50;75.36;96810.66;620244;228;66815;-61
2023/06/18 10:01:46;;;;;;;;;;;;;;;21.50;75.36;96809.87;620304;228;64858;-61
2023/06/18 10:04:14;;;;;;;;;;;;;;;21.50;75.35;96807.20;620190;228;67378;-61
2023/06/18 10:06:42;;;;;;;;;;;;;;;21.50;75.35;96805.31;620198;227;64865;-61
2023/06/18 10:09:10;;;;;;;;;;;;;;;21.50;75.36;96804.52;620212;228;65137;-61
2023/06/18 10:11:38;;;;;;;;;;;;;;;21.51;75.33;96808.78;619727;228;67202;-61
2023/06/18 10:14:07;;;;;;;;;;;;;;;21.50;75.34;96802.64;619925;228;67987;-61
2023/06/18 10:16:35;;;;;;;;;;;;;;;21.50;75.39;96804.52;620213;228;65123;-61
2023/06/18 10:19:16;;;;;;;;;;;;;;;21.51;75.36;96800.77;620241;228;67242;-61
2023/06/18 10:21:48;;;;;;;;;;;;;;;21.50;75.34;96802.64;620095;228;65344;-61
2023/06/18 10:24:17;;;;;;;;;;;;;;;21.50;75.34;96788.48;620177;228;65072;-61
2023/06/18 10:26:45;;;;;;;;;;;;;;;21.50;75.37;96797.30;620240;228;64965;-61
2023/06/18 10:29:13;;;;;;;;;;;;;;;21.50;75.42;96791.95;620223;228;65003;-60
2023/06/18 10:31:41;;;;;;;;;;;;;;;21.50;75.39;96789.27;620284;228;64895;-61
2023/06/18 10:34:09;;;;;;;;;;;;;;;21.50;75.35;96794.63;619954;228;67322;-61
2023/06/18 10:36:36;;;;;;;;;;;;;;;21.50;75.35;96791.95;620291;228;66813;-60
2023/06/18 10:39:05;;;;;;;;;;;;;;;21.50;75.36;96794.63;619368;228;64887;-61
2023/06/18 10:41:32;;;;;;;;;;;;;;;21.50;75.37;96789.27;619417;228;64270;-61
2023/06/18 10:44:00;;;;;;;;;;;;;;;21.50;75.36;96781.25;620324;228;66605;-61
2023/06/18 10:46:29;;;;;;;;;;;;;;;21.52;75.37;96790.86;620249;228;65082;-61
2023/06/18 10:49:16;;;;;;;;;;;;;;;21.50;75.35;96785.80;620206;228;64728;-61
2023/06/18 10:52:01;;;;;;;;;;;;;;;21.50;75.34;96789.27;620284;228;65500;-60
2023/06/18 10:54:33;;;;;;;;;;;;;;;21.51;75.33;96784.72;620273;228;67876;-60
2023/06/18 10:57:02;;;;;;;;;;;;;;;21.50;75.31;96786.59;620239;228;66855;-61
2023/06/18 10:59:43;;;;;;;;;;;;;;;21.51;75.34;96784.72;620304;228;67121;-61
2023/06/18 11:02:24;;;;;;;;;;;;;;;21.50;75.36;96783.13;620277;228;43777;-60
2023/06/18 11:04:53;;;;;;;;;;;;;;;21.50;75.34;96775.91;620057;228;67251;-60
2023/06/18 11:07:27;;;;;;;;;;;;;;;21.50;75.34;96783.13;620192;228;67195;-60
2023/06/18 11:09:56;;;;;;;;;;;;;;;21.50;75.30;96778.58;620004;228;65064;-60
2023/06/18 11:12:27;;;;;;;;;;;;;;;21.52;75.32;96777.48;620226;228;64878;-60
2023/06/18 11:15:12;;;;;;;;;;;;;;;21.50;75.29;96770.55;620252;228;65050;-60
2023/06/18 11:17:41;;;;;;;;;;;;;;;21.50;75.34;96780.46;620290;228;65323;-60
2023/06/18 11:20:09;;;;;;;;;;;;;;;21.51;75.33;96776.70;620221;229;67244;-60
2023/06/18 11:22:37;;;;;;;;;;;;;;;21.50;75.35;96762.53;620243;229;64916;-60
2023/06/18 11:25:07;;;;;;;;;;;;;;;21.52;75.34;96774.81;620241;229;65191;-60
2023/06/18 11:27:35;;;;;;;;;;;;;;;21.51;75.30;96757.98;620235;229;65062;-60
2023/06/18 11:30:02;;;;;;;;;;;;;;;21.50;75.29;96751.84;620277;229;64696;-60
2023/06/18 11:32:30;;;;;;;;;;;;;;;21.52;75.31;96753.42;620245;229;62974;-60
2023/06/18 11:34:57;;;;;;;;;;;;;;;21.51;75.32;96757.98;620251;228;67143;-60
2023/06/18 11:37:28;;;;;;;;;;;;;;;21.51;75.32;96752.63;620238;229;65350;-60
2023/06/18 11:39:55;;;;;;;;;;;;;;;21.52;75.31;96758.77;620247;229;62749;-60
2023/06/18 11:42:25;;;;;;;;;;;;;;;21.51;75.28;96755.31;620223;229;64795;-60
2023/06/18 11:44:53;;;;;;;;;;;;;;;21.51;75.29;96752.63;620271;229;67835;-60
2023/06/18 11:47:21;;;;;;;;;;;;;;;21.53;75.29;96749.69;620253;228;65272;-59
2023/06/18 11:49:49;;;;;;;;;;;;;;;21.52;75.28;96748.08;621737;228;67137;-60
2023/06/18 11:52:19;;;;;;;;;;;;;;;21.52;75.27;96742.73;622110;228;67104;-60
2023/06/18 11:54:47;;;;;;;;;;;;;;;21.53;75.29;96752.37;622125;228;65013;-60
2023/06/18 11:57:15;;;;;;;;;;;;;;;21.52;75.28;96750.75;622166;228;66917;-60
2023/06/18 11:59:43;;;;;;;;;;;;;;;21.52;75.26;96743.52;622103;228;66879;-60
2023/06/18 12:02:11;;;;;;;;;;;;;;;21.52;75.25;96742.73;622090;228;62914;-60
2023/06/18 12:04:40;;;;;;;;;;;;;;;21.51;75.30;96741.94;622118;228;65076;-60
2023/06/18 12:07:07;;;;;;;;;;;;;;;21.52;75.33;96742.73;622131;228;67041;-60
2023/06/18 12:09:38;;;;;;;;;;;;;;;21.52;75.29;96740.84;622171;228;65012;-60
2023/06/18 12:12:13;;;;;;;;;;;;;;;21.52;75.25;96742.73;622110;228;67326;-60
2023/06/18 12:14:57;;;;;;;;;;;;;;;21.52;75.26;96740.84;622064;228;64840;-60
2023/06/18 12:17:32;;;;;;;;;;;;;;;21.52;75.28;96737.38;622103;228;64967;-60
2023/06/18 12:20:01;;;;;;;;;;;;;;;21.52;75.27;96732.83;622150;228;67163;-60
2023/06/18 12:22:29;;;;;;;;;;;;;;;21.52;75.27;96732.03;621954;228;64908;-60
2023/06/18 12:24:57;;;;;;;;;;;;;;;21.52;75.25;96729.36;622103;228;62924;-60
2023/06/18 12:27:25;;;;;;;;;;;;;;;21.52;75.22;96729.36;622137;228;65054;-60
2023/06/18 12:29:53;;;;;;;;;;;;;;;21.52;75.26;96730.16;622093;228;67110;-60
2023/06/18 12:32:20;;;;;;;;;;;;;;;21.52;75.25;96724.02;622106;228;62751;-60
2023/06/18 12:34:48;;;;;;;;;;;;;;;21.52;75.24;96727.48;622100;228;65133;-60
2023/06/18 12:37:16;;;;;;;;;;;;;;;21.52;75.25;96732.03;622061;228;65783;-60
2023/06/18 12:40:01;;;;;;;;;;;;;;;21.51;75.25;96733.92;622160;228;65008;-60
2023/06/18 12:42:30;;;;;;;;;;;;;;;21.52;75.21;96737.38;622091;228;64533;-61
2023/06/18 12:44:58;;;;;;;;;;;;;;;21.52;75.25;96742.73;622057;228;64730;-61
2023/06/18 12:47:25;;;;;;;;;;;;;;;21.52;75.23;96732.83;622064;228;62915;-61
2023/06/18 12:49:53;;;;;;;;;;;;;;;21.52;75.24;96745.41;619922;228;65044;-61
2023/06/18 12:52:21;;;;;;;;;;;;;;;21.52;75.27;96737.38;620294;228;66130;-61
2023/06/18 12:54:49;;;;;;;;;;;;;;;21.52;75.24;96743.52;620268;228;65032;-61
2023/06/18 12:57:16;;;;;;;;;;;;;;;21.53;75.22;96739.00;620271;228;66883;-61